Time;durP1;ratioP1;P1;durP2;ratioP2;P2;SDS_P1;SDS_P2;PMS_P1;PMS_P2;Temp;Humidity;BMP_temperature;BMP_pressure;BME280_temperature;BME280_humidity;BME280_pressure;Samples;Min_cycle;Max_cycle;Signal;HPM_P1;HPM_P2
2024/04/13 00:01:47;;;;;;;2.37;1.70;;;19.10;53.50;21.00;102446.00;;;;22501738;26;20009;-43
2024/04/13 00:11:48;;;;;;;2.08;1.75;;;19.00;53.60;21.00;102437.00;;;;22433014;26;20248;-41
2024/04/13 00:21:48;;;;;;;1.58;1.48;;;19.00;53.80;21.00;102437.00;;;;22200533;26;20366;-42
2024/04/13 00:31:49;;;;;;;1.63;1.53;;;19.00;54.00;21.00;102427.00;;;;22320158;26;20000;-41
2024/04/13 00:41:53;;;;;;;1.73;1.63;;;19.00;54.00;20.90;102407.00;;;;22507000;26;20558;-42
2024/04/13 00:51:56;;;;;;;2.67;2.20;;;18.90;54.00;20.90;102412.00;;;;22494170;26;20017;-45
2024/04/13 01:01:59;;;;;;;2.22;2.03;;;18.90;54.10;20.80;102411.00;;;;22491547;26;20318;-48
2024/04/13 01:12:00;;;;;;;2.17;2.08;;;18.80;54.20;20.80;102412.00;;;;22518758;26;20002;-42
2024/04/13 01:22:01;;;;;;;1.90;1.73;;;18.80;54.20;20.70;102414.00;;;;22643572;26;20051;-42
2024/04/13 01:32:01;;;;;;;2.63;2.22;;;18.80;54.40;20.60;102409.00;;;;22617252;26;20420;-48
2024/04/13 01:42:02;;;;;;;2.83;2.07;;;18.70;54.30;20.60;102409.00;;;;22643114;26;20485;-42
2024/04/13 01:52:03;;;;;;;5.07;1.88;;;18.70;54.50;20.50;102434.00;;;;22642148;26;20006;-42
2024/04/13 02:02:04;;;;;;;2.30;1.95;;;18.60;54.60;20.50;102425.00;;;;22643937;26;20530;-42
2024/04/13 02:12:08;;;;;;;2.60;2.40;;;18.60;54.70;20.40;102432.00;;;;22650967;26;19994;-42
2024/04/13 02:22:10;;;;;;;2.83;2.17;;;18.50;54.70;20.30;102412.00;;;;22650497;26;20014;-44
2024/04/13 02:32:11;;;;;;;2.33;2.05;;;18.40;54.70;20.20;102400.00;;;;22650258;26;20001;-43
2024/04/13 02:42:12;;;;;;;3.38;2.45;;;18.30;54.70;20.00;102415.00;;;;22648967;26;20017;-42
2024/04/13 02:52:12;;;;;;;4.15;2.00;;;18.30;54.70;19.90;102394.00;;;;22629102;26;20797;-42
2024/04/13 03:02:13;;;;;;;1.87;1.77;;;18.10;54.70;19.70;102364.00;;;;22644635;26;19998;-41
2024/04/13 03:12:15;;;;;;;3.60;2.40;;;18.00;54.70;19.60;102365.00;;;;22637586;26;20010;-41
2024/04/13 03:22:16;;;;;;;1.92;1.83;;;17.80;54.70;19.50;102391.00;;;;22634494;26;20010;-41
2024/04/13 03:32:16;;;;;;;3.13;2.33;;;17.70;55.00;19.40;102400.00;;;;22629088;26;20190;-42
2024/04/13 03:42:20;;;;;;;2.50;2.30;;;17.60;55.20;19.40;102378.00;;;;22631366;26;20014;-42
2024/04/13 03:52:21;;;;;;;2.08;1.95;;;17.60;55.30;19.20;102384.00;;;;22663588;26;20412;-41
2024/04/13 04:02:21;;;;;;;3.35;1.90;;;17.50;55.30;19.20;102374.00;;;;22645358;26;20323;-41
2024/04/13 04:12:22;;;;;;;2.30;2.10;;;17.40;55.30;19.10;102388.00;;;;22645371;26;19998;-41
2024/04/13 04:22:23;;;;;;;2.45;2.25;;;17.40;55.30;19.00;102345.00;;;;22663257;26;20274;-44
2024/04/13 04:32:25;;;;;;;4.18;2.47;;;17.30;55.30;18.90;102387.00;;;;22641488;26;19998;-41
2024/04/13 04:42:28;;;;;;;2.70;2.45;;;17.20;55.40;18.80;102390.00;;;;22657167;26;20006;-42
2024/04/13 04:52:29;;;;;;;3.22;2.40;;;17.10;55.60;18.80;102390.00;;;;22656797;26;20002;-42
2024/04/13 05:02:29;;;;;;;2.75;2.55;;;17.10;55.90;18.90;102395.00;;;;22571889;26;20042;-41
2024/04/13 05:12:30;;;;;;;3.33;3.03;;;17.10;56.30;19.10;102406.00;;;;22655854;26;20017;-44
2024/04/13 05:22:31;;;;;;;2.57;2.23;;;17.20;56.70;19.30;102376.00;;;;22628835;26;20501;-41
2024/04/13 05:32:35;;;;;;;3.63;3.08;;;17.30;56.90;19.60;102397.00;;;;22611027;26;20220;-41
2024/04/13 05:42:35;;;;;;;3.30;3.05;;;17.50;57.20;19.90;102398.00;;;;22601298;26;20369;-42
2024/04/13 05:52:37;;;;;;;25.97;23.57;;;17.80;57.50;20.30;102407.00;;;;22620563;26;19998;-42
2024/04/13 06:02:38;;;;;;;22.63;20.90;;;18.10;58.60;20.90;102391.00;;;;22593483;26;20033;-44
2024/04/13 06:12:39;;;;;;;25.40;23.05;;;18.50;58.60;21.20;102396.00;;;;22624071;26;20030;-44
2024/04/13 06:22:40;;;;;;;25.33;22.63;;;18.90;58.60;21.70;102412.00;;;;22643558;26;20012;-50
2024/04/13 06:32:41;;;;;;;25.67;23.38;;;19.30;58.80;22.20;102409.00;;;;22602961;26;20267;-44
2024/04/13 06:42:42;;;;;;;25.83;23.58;;;19.70;58.70;22.60;102375.00;;;;22584480;26;20006;-46
2024/04/13 06:52:42;;;;;;;26.35;23.65;;;20.10;58.80;22.90;102355.00;;;;22614469;26;20083;-47
2024/04/13 07:02:48;;;;;;;24.90;22.90;;;20.40;58.80;23.20;102390.00;;;;22640518;26;19998;-44
2024/04/13 07:12:49;;;;;;;25.42;23.10;;;20.70;58.70;23.60;102377.00;;;;22598453;26;20235;-47
2024/04/13 07:22:50;;;;;;;25.23;23.10;;;21.00;58.60;24.00;102388.00;;;;22653351;26;19994;-44
2024/04/13 07:32:51;;;;;;;25.70;23.27;;;21.30;58.70;24.30;102365.00;;;;22616198;26;20018;-45
2024/04/13 07:42:52;;;;;;;25.37;23.43;;;21.60;58.50;24.60;102339.00;;;;22633594;26;20009;-44
2024/04/13 07:52:52;;;;;;;25.42;23.23;;;21.90;58.20;24.90;102365.00;;;;22677427;26;20320;-45
2024/04/13 08:02:53;;;;;;;24.10;22.20;;;22.10;57.70;25.00;102368.00;;;;22661771;26;20045;-45
2024/04/13 08:12:54;;;;;;;23.40;21.57;;;22.30;57.30;25.20;102358.00;;;;22642174;26;19994;-46
2024/04/13 08:22:54;;;;;;;24.17;22.17;;;22.50;57.20;25.40;102353.00;;;;22639256;26;20223;-44
2024/04/13 08:32:55;;;;;;;25.00;22.80;;;22.60;56.60;25.60;102356.00;;;;22649492;26;19998;-43
2024/04/13 08:43:05;;;;;;;23.93;21.83;;;22.80;56.70;25.80;102346.00;;;;22641439;26;19998;-50
2024/04/13 08:53:10;;;;;;;24.27;22.05;;;23.00;56.20;26.00;102358.00;;;;22640935;26;20324;-48
2024/04/13 09:03:13;;;;;;;23.98;22.02;;;23.20;56.00;26.20;102341.00;;;;22594412;26;19994;-48
2024/04/13 09:13:14;;;;;;;23.92;21.83;;;23.30;55.90;26.60;102342.00;;;;22634088;26;20016;-48
2024/04/13 09:23:20;;;;;;;23.87;21.90;;;23.60;56.00;27.10;102328.00;;;;22624711;26;20385;-46
2024/04/13 09:33:21;;;;;;;24.10;22.00;;;24.00;55.50;27.20;102316.00;;;;22636154;26;19998;-47
2024/04/13 09:43:22;;;;;;;24.17;22.00;;;24.20;54.90;27.30;102320.00;;;;22637190;26;20518;-45
2024/04/13 09:53:26;;;;;;;23.70;21.80;;;24.30;54.80;27.80;102323.00;;;;22660980;26;20074;-50
2024/04/13 10:03:27;;;;;;;23.58;21.58;;;24.70;55.30;28.10;102314.00;;;;22635526;26;20082;-44
2024/04/13 10:13:40;;;;;;;24.40;22.27;;;25.00;54.00;28.30;102324.00;;;;22645867;26;20002;-45
2024/04/13 10:23:45;;;;;;;23.38;21.48;;;25.20;53.80;28.50;102313.00;;;;22557186;26;20555;-45
2024/04/13 10:33:54;;;;;;;20.02;18.73;;;25.30;53.30;28.60;102279.00;;;;22676163;26;20009;-46
2024/04/13 10:44:25;;;;;;;10.02;9.40;;;25.40;52.10;28.80;102297.00;;;;22630950;26;20009;-49
2024/04/13 10:54:26;;;;;;;19.42;17.92;;;25.50;51.40;28.90;102271.00;;;;22639854;26;20034;-45
2024/04/13 11:15:49;;;;;;;7.68;7.22;;;26.00;49.90;29.60;102230.00;;;;22669603;26;20042;-51
2024/04/13 11:25:50;;;;;;;3.05;1.80;;;26.20;51.70;29.90;102235.00;;;;22651363;26;20499;-50
2024/04/13 11:48:19;;;;;;;1.88;1.45;;;26.80;48.80;30.40;102238.00;;;;22647856;26;20054;-44
2024/04/13 11:58:30;;;;;;;4.00;1.63;;;26.90;49.00;30.70;102223.00;;;;22621912;26;20420;-46
2024/04/13 12:08:30;;;;;;;2.83;1.77;;;27.20;49.00;30.90;102207.00;;;;22630813;25;20014;-50
2024/04/13 12:18:31;;;;;;;1.53;1.43;;;27.50;48.30;30.90;102201.00;;;;22639654;26;20437;-48
2024/04/13 20:03:59;;;;;;;;;;;23.20;49.40;25.30;101687.00;;;;22694852;26;19990;-44
2024/04/13 20:13:59;;;;;;;3.03;2.72;;;22.70;49.30;25.00;101640.00;;;;22672573;26;19935;-45
2024/04/13 20:24:00;;;;;;;2.33;1.90;;;22.80;49.20;24.80;101655.00;;;;22642531;26;20010;-44
2024/04/13 20:34:01;;;;;;;3.70;2.47;;;22.60;49.50;24.70;101644.00;;;;22683163;26;20263;-43
2024/04/13 20:44:03;;;;;;;2.20;1.97;;;22.40;49.80;24.60;101625.00;;;;22635631;26;20269;-48
2024/04/13 20:54:04;;;;;;;2.47;1.85;;;22.20;50.10;24.50;101612.00;;;;22667468;26;20001;-45
2024/04/13 21:04:04;;;;;;;4.35;1.67;;;22.10;50.30;24.40;101606.00;;;;22664962;26;19998;-44
2024/04/13 21:14:08;;;;;;;2.13;1.92;;;22.10;50.50;24.20;101594.00;;;;22675456;26;19990;-43
2024/04/13 21:24:08;;;;;;;1.73;1.63;;;22.00;50.60;24.20;101578.00;;;;22654432;26;20017;-48
2024/04/13 21:34:09;;;;;;;1.13;1.03;;;21.90;50.70;24.20;101569.00;;;;22646561;26;19998;-47
2024/04/13 21:44:10;;;;;;;1.40;1.30;;;21.90;50.90;24.10;101557.00;;;;22671043;26;20421;-44
2024/04/13 21:54:14;;;;;;;3.10;1.13;;;21.80;51.00;24.10;101548.00;;;;22633986;26;20235;-42
2024/04/13 22:04:15;;;;;;;2.67;1.27;;;21.80;51.30;24.10;101527.00;;;;22657230;26;20332;-48
2024/04/13 22:14:16;;;;;;;2.15;1.05;;;21.70;51.20;24.10;101518.00;;;;22640030;26;20009;-45
2024/04/13 22:24:23;;;;;;;2.20;0.90;;;21.70;51.20;24.10;101504.00;;;;22660023;26;19994;-50
2024/04/13 22:34:24;;;;;;;1.03;0.93;;;21.70;51.20;24.00;101503.00;;;;22658552;26;20009;-45
2024/04/13 22:44:25;;;;;;;1.10;1.00;;;21.60;51.20;23.90;101474.00;;;;22626708;26;20009;-45
2024/04/13 22:54:27;;;;;;;2.10;1.10;;;21.60;51.20;23.80;101475.00;;;;22657040;26;20016;-43
2024/04/13 23:04:27;;;;;;;0.80;0.80;;;21.50;51.20;23.70;101465.00;;;;22635608;26;20002;-43
2024/04/13 23:14:28;;;;;;;0.87;0.87;;;21.40;51.30;23.70;101449.00;;;;22637274;26;20234;-42
2024/04/13 23:24:29;;;;;;;1.33;1.20;;;21.40;51.40;23.60;101437.00;;;;22663821;26;20315;-43
2024/04/13 23:34:29;;;;;;;1.40;1.00;;;21.30;51.40;23.60;101442.00;;;;22637438;26;20002;-46
2024/04/13 23:44:30;;;;;;;0.93;0.90;;;21.30;51.40;23.50;101416.00;;;;22660458;26;20010;-45
2024/04/13 23:54:31;;;;;;;1.40;1.00;;;21.30;51.40;23.40;101430.00;;;;22652007;26;20014;-44
